createdAt,value
2019-02-05T00:00:54.957Z,77.30
2019-02-05T00:03:24.713Z,77.40
2019-02-05T00:05:54.343Z,77.40
2019-02-05T00:08:23.973Z,77.30
2019-02-05T00:10:53.681Z,77.20
2019-02-05T00:13:23.363Z,77.20
2019-02-05T00:15:53.151Z,77.20
2019-02-05T00:18:22.813Z,77.00
2019-02-05T00:20:52.465Z,77.10
2019-02-05T00:23:22.112Z,77.00
2019-02-05T00:25:52.076Z,77.00
2019-02-05T00:28:21.806Z,76.90
2019-02-05T00:30:51.554Z,76.90
2019-02-05T00:33:21.285Z,76.80
2019-02-05T00:35:50.873Z,76.90
2019-02-05T00:38:20.515Z,76.90
2019-02-05T00:40:50.509Z,77.00
2019-02-05T00:43:20.330Z,76.90
2019-02-05T00:45:49.960Z,76.80
2019-02-05T00:48:19.597Z,76.60
2019-02-05T00:50:49.202Z,76.60
2019-02-05T00:53:18.832Z,76.60
2019-02-05T00:55:48.433Z,76.80
2019-02-05T00:58:18.101Z,76.80
2019-02-05T01:00:47.732Z,76.80
2019-02-05T01:03:17.519Z,76.70
2019-02-05T01:05:48.094Z,76.60
2019-02-05T01:08:18.222Z,76.60
2019-02-05T01:10:47.809Z,76.50
2019-02-05T01:13:17.454Z,76.60
2019-02-05T01:15:47.494Z,77.00
2019-02-05T01:18:17.133Z,76.60
2019-02-05T01:20:46.740Z,76.80
2019-02-05T01:23:16.558Z,76.80
2019-02-05T01:25:46.202Z,76.80
2019-02-05T01:28:15.866Z,76.80
2019-02-05T01:30:45.510Z,76.90
2019-02-05T01:33:15.102Z,76.80
2019-02-05T01:35:44.744Z,76.90
2019-02-05T01:38:14.522Z,76.90
2019-02-05T01:40:44.113Z,77.00
2019-02-05T01:43:13.711Z,77.10
2019-02-05T01:45:43.362Z,77.10
2019-02-05T01:48:12.950Z,77.00
2019-02-05T01:50:42.738Z,76.90
2019-02-05T01:53:12.372Z,77.00
2019-02-05T01:55:42.660Z,76.90
2019-02-05T01:58:12.399Z,77.00
2019-02-05T02:00:42.169Z,77.00
2019-02-05T02:03:11.801Z,77.10
2019-02-05T02:05:41.975Z,77.10
2019-02-05T02:08:11.750Z,77.00
2019-02-05T02:10:41.354Z,77.10
2019-02-05T02:13:11.048Z,77.10
2019-02-05T02:15:40.645Z,77.20
2019-02-05T02:18:10.249Z,77.20
2019-02-05T02:20:40.258Z,77.20
2019-02-05T02:23:09.858Z,77.30
2019-02-05T02:25:40.425Z,77.30
2019-02-05T02:28:10.029Z,77.20
2019-02-05T02:30:39.621Z,77.20
2019-02-05T02:33:09.294Z,77.20
2019-02-05T02:35:39.231Z,77.10
2019-02-05T02:38:09.008Z,77.20
2019-02-05T02:40:38.601Z,77.00
2019-02-05T02:43:08.250Z,76.90
2019-02-05T02:45:37.846Z,76.90
2019-02-05T02:48:07.443Z,76.80
2019-02-05T02:50:37.862Z,76.90
2019-02-05T02:53:07.525Z,76.90
2019-02-05T02:55:37.828Z,76.90
2019-02-05T02:58:07.585Z,77.00
2019-02-05T03:00:37.224Z,77.10
2019-02-05T03:03:06.830Z,77.00
2019-02-05T03:05:36.613Z,77.10
2019-02-05T03:08:06.205Z,77.00
2019-02-05T03:10:35.941Z,77.00
2019-02-05T03:13:05.591Z,77.00
2019-02-05T03:15:35.503Z,77.00
2019-02-05T03:18:05.212Z,77.00
2019-02-05T03:20:35.983Z,77.00
2019-02-05T03:23:05.717Z,77.00
2019-02-05T03:25:35.352Z,77.00
2019-02-05T03:28:04.954Z,76.80
2019-02-05T03:30:34.631Z,76.60
2019-02-05T03:33:05.198Z,76.50
2019-02-05T03:35:34.885Z,76.30
2019-02-05T03:38:04.722Z,76.20
2019-02-05T03:40:40.494Z,76.00
2019-02-05T03:43:10.158Z,76.00
2019-02-05T03:45:39.745Z,75.90
2019-02-05T03:48:09.475Z,75.80
2019-02-05T03:50:46.827Z,75.80
2019-02-05T03:53:31.515Z,75.80
2019-02-05T03:56:15.590Z,75.60
2019-02-05T03:58:48.866Z,75.50
2019-02-05T04:01:39.592Z,75.50
2019-02-05T04:04:31.646Z,75.70
2019-02-05T04:07:13.597Z,75.80
2019-02-05T04:10:01.013Z,76.10
2019-02-05T04:12:37.574Z,76.20
2019-02-05T04:15:22.172Z,76.40
2019-02-05T04:17:58.088Z,76.50
2019-02-05T04:20:31.159Z,76.60
2019-02-05T04:23:09.558Z,76.60
2019-02-05T04:26:04.782Z,76.70
2019-02-05T04:28:43.223Z,76.70
2019-02-05T04:31:21.681Z,76.60
2019-02-05T04:34:13.832Z,76.70
2019-02-05T04:37:07.020Z,76.60
2019-02-05T04:39:48.638Z,76.60
2019-02-05T04:42:21.495Z,77.60
2019-02-05T04:45:03.140Z,76.80
2019-02-05T04:47:47.742Z,76.80
2019-02-05T04:50:29.641Z,76.80
2019-02-05T04:53:08.170Z,76.80
2019-02-05T04:55:56.122Z,76.80
2019-02-05T04:58:45.732Z,76.90
2019-02-05T05:01:24.721Z,76.90
2019-02-05T05:04:03.180Z,76.80
2019-02-05T05:06:36.036Z,76.70
2019-02-05T05:09:26.310Z,76.70
2019-02-05T05:11:56.031Z,76.80
2019-02-05T05:14:25.635Z,76.80
2019-02-05T05:16:55.714Z,76.80
2019-02-05T05:19:25.430Z,76.80
2019-02-05T05:21:55.165Z,76.90
2019-02-05T05:24:24.812Z,77.00
2019-02-05T05:26:54.417Z,77.00
2019-02-05T05:29:24.157Z,77.10
2019-02-05T05:31:53.935Z,77.10
2019-02-05T05:34:23.881Z,77.10
2019-02-05T05:36:52.664Z,77.20
2019-02-05T05:39:22.293Z,77.20
2019-02-05T05:41:51.897Z,77.00
2019-02-05T05:44:21.617Z,77.10
2019-02-05T05:46:51.463Z,77.00
2019-02-05T05:49:21.540Z,76.80
2019-02-05T05:51:51.362Z,76.60
2019-02-05T05:54:21.204Z,76.60
2019-02-05T05:56:50.845Z,76.60
2019-02-05T05:59:20.484Z,76.60
2019-02-05T06:01:50.114Z,76.60
2019-02-05T06:04:19.768Z,76.60
2019-02-05T06:06:49.494Z,76.50
2019-02-05T06:09:19.216Z,76.40
2019-02-05T06:11:48.841Z,76.50
2019-02-05T06:14:18.488Z,76.60
2019-02-05T06:16:48.292Z,76.50
2019-02-05T06:19:17.941Z,76.60
2019-02-05T06:21:47.732Z,76.70
2019-02-05T06:24:17.510Z,76.90
2019-02-05T06:26:47.323Z,77.10
2019-02-05T06:29:17.118Z,77.20
2019-02-05T06:31:46.812Z,77.30
2019-02-05T06:34:16.924Z,77.30
2019-02-05T06:36:46.923Z,77.40
2019-02-05T06:39:16.705Z,77.50
2019-02-05T06:41:46.501Z,77.50
2019-02-05T06:44:16.145Z,77.50
2019-02-05T06:46:45.775Z,77.40
2019-02-05T06:49:15.422Z,77.30
2019-02-05T06:51:46.342Z,77.20
2019-02-05T06:54:15.977Z,77.10
2019-02-05T06:56:45.716Z,77.20
2019-02-05T06:59:15.553Z,77.30
2019-02-05T07:01:45.213Z,77.40
2019-02-05T07:04:14.945Z,77.50
2019-02-05T07:06:44.878Z,77.50
2019-02-05T07:09:14.661Z,77.50
2019-02-05T07:11:44.330Z,77.40
2019-02-05T07:14:14.018Z,77.50
2019-02-05T07:16:43.633Z,77.40
2019-02-05T07:19:13.431Z,77.30
2019-02-05T07:21:43.293Z,77.20
2019-02-05T07:24:12.982Z,77.20
2019-02-05T07:26:42.784Z,77.30
2019-02-05T07:29:12.912Z,77.40
2019-02-05T07:31:42.672Z,77.50
2019-02-05T07:34:12.325Z,77.50
2019-02-05T07:36:42.120Z,77.50
2019-02-05T07:39:12.782Z,77.30
2019-02-05T07:41:42.517Z,77.30
2019-02-05T07:44:12.216Z,77.20
2019-02-05T07:46:41.942Z,77.40
2019-02-05T07:49:11.761Z,77.70
2019-02-05T07:51:41.414Z,77.60
2019-02-05T07:54:11.067Z,77.50
2019-02-05T07:56:40.806Z,77.40
2019-02-05T07:59:10.701Z,77.40
2019-02-05T08:01:41.375Z,77.50
2019-02-05T08:04:11.328Z,77.20
2019-02-05T08:06:41.085Z,77.10
2019-02-05T08:09:10.869Z,76.80
2019-02-05T08:11:41.524Z,76.80
2019-02-05T08:14:11.320Z,76.90
2019-02-05T08:16:41.050Z,76.70
2019-02-05T08:19:10.728Z,76.60
2019-02-05T08:21:41.236Z,76.70
2019-02-05T08:24:11.024Z,76.80
2019-02-05T08:26:41.682Z,76.60
2019-02-05T08:29:21.442Z,76.50
2019-02-05T08:31:43.045Z,76.30
2019-02-05T08:34:12.807Z,76.20
2019-02-05T08:36:42.538Z,75.90
2019-02-05T08:39:12.244Z,75.90
2019-02-05T08:41:41.936Z,75.90
2019-02-05T08:44:12.021Z,75.70
2019-02-05T08:46:41.805Z,75.50
2019-02-05T08:49:11.475Z,74.80
2019-02-05T08:51:41.289Z,74.70
2019-02-05T08:54:10.981Z,74.60
2019-02-05T08:56:40.639Z,74.70
2019-02-05T08:59:10.428Z,74.60
2019-02-05T09:01:40.338Z,74.60
2019-02-05T09:04:10.022Z,74.40
2019-02-05T09:06:40.094Z,74.40
2019-02-05T09:09:09.800Z,74.30
2019-02-05T09:11:39.434Z,74.30
2019-02-05T09:14:11.158Z,74.10
2019-02-05T09:16:40.678Z,73.70
2019-02-05T09:19:10.425Z,73.70
2019-02-05T09:21:40.755Z,73.70
2019-02-05T09:24:10.454Z,73.80
2019-02-05T09:26:40.110Z,73.70
2019-02-05T09:29:10.072Z,73.40
2019-02-05T09:31:41.854Z,73.30
2019-02-05T09:34:11.523Z,73.20
2019-02-05T09:36:41.953Z,73.10
2019-02-05T09:39:11.756Z,72.90
2019-02-05T09:41:41.497Z,72.60
2019-02-05T09:44:11.210Z,72.60
2019-02-05T09:46:40.884Z,72.50
2019-02-05T09:49:10.709Z,72.60
2019-02-05T09:51:40.365Z,72.30
2019-02-05T09:54:10.210Z,72.10
2019-02-05T09:56:39.954Z,71.90
2019-02-05T09:59:09.578Z,71.80
2019-02-05T10:01:39.188Z,71.50
2019-02-05T10:04:09.519Z,71.00
2019-02-05T10:06:39.266Z,70.60
2019-02-05T10:09:09.158Z,70.00
2019-02-05T10:11:39.504Z,70.10
2019-02-05T10:14:09.200Z,70.20
2019-02-05T10:16:38.925Z,70.20
2019-02-05T10:19:08.918Z,70.40
2019-02-05T10:21:38.595Z,70.70
2019-02-05T10:24:09.041Z,70.60
2019-02-05T10:26:38.675Z,70.70
2019-02-05T10:29:09.108Z,70.90
2019-02-05T10:31:38.899Z,70.70
2019-02-05T10:34:08.676Z,70.70
2019-02-05T10:36:38.386Z,70.50
2019-02-05T10:39:09.448Z,69.90
2019-02-05T10:41:39.366Z,69.70
2019-02-05T10:44:09.120Z,69.70
2019-02-05T10:46:38.788Z,69.80
2019-02-05T10:49:09.484Z,69.50
2019-02-05T10:51:39.330Z,69.30
2019-02-05T10:54:09.106Z,69.40
2019-02-05T10:56:38.761Z,69.40
2019-02-05T10:59:08.439Z,69.40
2019-02-05T11:01:38.189Z,69.70
2019-02-05T11:04:08.038Z,69.80
2019-02-05T11:06:38.108Z,69.60
2019-02-05T11:09:08.179Z,69.90
2019-02-05T11:11:37.966Z,70.00
2019-02-05T11:14:07.766Z,70.20
2019-02-05T11:16:37.413Z,70.20
2019-02-05T11:19:07.127Z,70.00
2019-02-05T11:21:37.444Z,70.40
2019-02-05T11:24:07.098Z,71.00
2019-02-05T11:26:36.986Z,71.40
2019-02-05T11:29:06.700Z,71.80
2019-02-05T11:31:36.453Z,70.80
2019-02-05T11:34:06.160Z,69.90
2019-02-05T11:36:35.853Z,69.20
2019-02-05T11:39:09.726Z,68.40
2019-02-05T11:41:40.131Z,67.80
2019-02-05T11:44:10.059Z,67.40
2019-02-05T11:46:39.743Z,67.10
2019-02-05T11:49:10.168Z,66.80
2019-02-05T11:51:40.136Z,67.00
2019-02-05T11:54:09.861Z,67.10
2019-02-05T11:56:39.663Z,66.90
2019-02-05T11:59:09.364Z,66.90
2019-02-05T12:01:39.473Z,66.60
2019-02-05T12:04:09.377Z,66.30
2019-02-05T12:06:39.165Z,66.30
2019-02-05T12:09:15.308Z,66.20
2019-02-05T12:11:45.058Z,66.30
2019-02-05T12:14:14.707Z,66.10
2019-02-05T12:16:44.357Z,66.00
2019-02-05T12:19:14.188Z,65.90
2019-02-05T12:21:43.897Z,66.00
2019-02-05T12:24:13.814Z,66.10
2019-02-05T12:26:43.597Z,66.00
2019-02-05T12:29:13.253Z,66.20
2019-02-05T12:31:43.073Z,66.50
2019-02-05T12:34:12.738Z,66.10
2019-02-05T12:36:42.382Z,66.30
2019-02-05T12:39:16.422Z,66.20
2019-02-05T12:41:46.872Z,66.30
2019-02-05T12:44:16.584Z,66.10
2019-02-05T12:46:46.309Z,66.60
2019-02-05T12:49:16.011Z,67.20
2019-02-05T12:51:45.725Z,67.40
2019-02-05T12:54:15.814Z,67.10
2019-02-05T12:56:45.505Z,67.00
2019-02-05T12:59:15.186Z,67.70
2019-02-05T13:01:44.841Z,66.80
2019-02-05T13:04:14.501Z,66.80
2019-02-05T13:06:44.150Z,66.60
2019-02-05T13:09:15.003Z,66.60
2019-02-05T13:11:44.709Z,66.80
2019-02-05T13:14:14.353Z,67.00
2019-02-05T13:16:44.229Z,67.00
2019-02-05T13:19:13.941Z,66.90
2019-02-05T13:21:43.827Z,66.50
2019-02-05T13:24:16.479Z,66.70
2019-02-05T13:26:44.760Z,66.70
2019-02-05T13:29:14.437Z,66.40
2019-02-05T13:31:44.079Z,65.70
2019-02-05T13:34:13.947Z,65.50
2019-02-05T13:36:44.117Z,66.10
2019-02-05T13:39:13.724Z,65.10
2019-02-05T13:41:43.394Z,65.50
2019-02-05T13:44:13.226Z,65.50
2019-02-05T13:46:43.008Z,65.70
2019-02-05T13:49:12.901Z,65.40
2019-02-05T13:51:42.534Z,66.20
2019-02-05T13:54:12.266Z,66.20
2019-02-05T13:56:41.995Z,65.40
2019-02-05T13:59:11.629Z,65.30
2019-02-05T14:01:44.414Z,65.40
2019-02-05T14:04:12.691Z,65.70
2019-02-05T14:06:42.480Z,65.80
2019-02-05T14:09:12.249Z,66.00
2019-02-05T14:11:41.910Z,66.00
2019-02-05T14:14:11.664Z,66.60
2019-02-05T14:16:41.382Z,66.40
2019-02-05T14:19:11.051Z,66.20
2019-02-05T14:21:40.790Z,66.00
2019-02-05T14:24:10.453Z,66.30
2019-02-05T14:26:41.071Z,66.40
2019-02-05T14:29:10.705Z,66.60
2019-02-05T14:31:40.500Z,66.50
2019-02-05T14:34:10.348Z,66.60
2019-02-05T14:36:39.972Z,66.40
2019-02-05T14:39:10.229Z,66.60
2019-02-05T14:41:39.874Z,67.40
2019-02-05T14:44:09.532Z,67.10
2019-02-05T14:46:39.258Z,67.10
2019-02-05T14:49:09.377Z,67.20
2019-02-05T14:51:42.013Z,67.30
2019-02-05T14:54:11.768Z,67.40
2019-02-05T14:56:41.476Z,67.60
2019-02-05T14:59:11.259Z,68.00
2019-02-05T15:01:43.161Z,68.20
2019-02-05T15:04:12.327Z,68.40
2019-02-05T15:06:42.723Z,68.60
2019-02-05T15:09:12.411Z,68.60
2019-02-05T15:11:42.097Z,69.00
2019-02-05T15:14:11.745Z,69.10
2019-02-05T15:16:41.890Z,69.20
2019-02-05T15:19:11.539Z,69.10
2019-02-05T15:21:41.305Z,69.30
2019-02-05T15:24:11.060Z,69.40
2019-02-05T15:26:41.418Z,69.60
2019-02-05T15:29:11.094Z,70.00
2019-02-05T15:31:40.817Z,71.00
2019-02-05T15:34:13.492Z,70.50
2019-02-05T15:36:43.737Z,70.70
2019-02-05T15:39:13.677Z,70.90
2019-02-05T15:41:43.607Z,70.90
2019-02-05T15:44:13.593Z,71.20
2019-02-05T15:46:43.272Z,71.40
2019-02-05T15:49:13.044Z,71.50
2019-02-05T15:51:42.810Z,71.70
2019-02-05T15:54:12.444Z,71.90
2019-02-05T15:56:42.080Z,71.90
2019-02-05T15:59:12.009Z,72.10
2019-02-05T16:01:41.926Z,72.10
2019-02-05T16:04:11.568Z,72.20
2019-02-05T16:06:41.289Z,73.00
2019-02-05T16:09:11.146Z,72.40
2019-02-05T16:11:40.785Z,72.60
2019-02-05T16:14:10.636Z,72.60
2019-02-05T16:16:40.561Z,72.70
2019-02-05T16:19:10.203Z,73.90
2019-02-05T16:21:39.870Z,74.60
2019-02-05T16:24:09.582Z,73.90
2019-02-05T16:26:40.111Z,73.90
2019-02-05T16:29:09.741Z,74.00
2019-02-05T16:31:39.471Z,74.00
2019-02-05T16:34:09.142Z,73.60
2019-02-05T16:36:38.816Z,73.50
2019-02-05T16:39:09.585Z,73.20
2019-02-05T16:41:39.435Z,73.20
2019-02-05T16:44:10.099Z,73.20
2019-02-05T16:46:39.738Z,73.30
2019-02-05T16:49:09.380Z,73.40
2019-02-05T16:51:39.139Z,73.40
2019-02-05T16:54:08.777Z,73.50
2019-02-05T16:56:38.873Z,73.60
2019-02-05T16:59:09.240Z,73.70
2019-02-05T17:01:39.029Z,73.90
2019-02-05T17:04:09.066Z,74.10
2019-02-05T17:06:38.704Z,74.10
2019-02-05T17:09:11.701Z,74.20
2019-02-05T17:11:41.529Z,74.40
2019-02-05T17:14:12.169Z,74.50
2019-02-05T17:16:41.810Z,74.60
2019-02-05T17:19:11.504Z,74.60
2019-02-05T17:21:41.221Z,74.60
2019-02-05T17:24:10.869Z,74.60
2019-02-05T17:26:40.518Z,74.50
2019-02-05T17:29:10.838Z,74.60
2019-02-05T17:31:40.472Z,74.60
2019-02-05T17:34:10.117Z,74.60
2019-02-05T17:36:39.746Z,74.50
2019-02-05T17:39:11.206Z,74.50
2019-02-05T17:41:40.862Z,74.60
2019-02-05T17:44:10.492Z,74.60
2019-02-05T17:49:06.014Z,74.60
2019-02-05T17:51:35.690Z,74.70
2019-02-05T17:54:05.284Z,74.60
2019-02-05T17:56:35.083Z,74.80
2019-02-05T17:59:04.713Z,74.80
2019-02-05T18:01:34.461Z,75.00
2019-02-05T18:04:05.207Z,75.00
2019-02-05T18:06:34.928Z,75.20
2019-02-05T18:09:06.962Z,75.20
2019-02-05T18:11:36.554Z,75.40
2019-02-05T18:14:06.136Z,75.50
2019-02-05T18:16:35.833Z,75.60
2019-02-05T18:19:05.430Z,75.70
2019-02-05T18:21:35.153Z,75.70
2019-02-05T18:24:05.125Z,75.70
2019-02-05T18:26:34.998Z,75.80
2019-02-05T18:29:04.683Z,75.70
2019-02-05T18:31:34.270Z,75.50
2019-02-05T18:34:04.094Z,75.50
2019-02-05T18:36:33.793Z,75.50
2019-02-05T18:39:05.193Z,75.50
2019-02-05T18:41:35.883Z,75.60
2019-02-05T18:44:05.477Z,75.40
2019-02-05T18:46:35.074Z,75.60
2019-02-05T18:49:06.957Z,75.60
2019-02-05T18:51:36.073Z,75.60
2019-02-05T18:54:05.713Z,75.80
2019-02-05T18:56:35.351Z,75.80
2019-02-05T18:59:04.978Z,75.60
2019-02-05T19:01:34.759Z,75.50
2019-02-05T19:04:04.418Z,75.50
2019-02-05T19:06:34.318Z,75.70
2019-02-05T19:09:05.395Z,75.80
2019-02-05T19:11:34.996Z,75.80
2019-02-05T19:14:04.576Z,75.90
2019-02-05T19:16:35.006Z,75.90
2019-02-05T19:19:14.689Z,75.90
2019-02-05T19:21:35.941Z,75.80
2019-02-05T19:24:07.381Z,75.90
2019-02-05T19:26:37.875Z,76.00
2019-02-05T19:29:18.198Z,75.90
2019-02-05T19:31:39.048Z,75.90
2019-02-05T19:34:09.009Z,75.90
2019-02-05T19:36:38.596Z,75.70
2019-02-05T19:39:08.505Z,75.80
2019-02-05T19:41:38.169Z,75.90
2019-02-05T19:44:08.670Z,76.20
2019-02-05T19:46:41.373Z,76.30
2019-02-05T19:49:21.552Z,76.40
2019-02-05T19:51:44.108Z,76.50
2019-02-05T19:54:14.054Z,76.60
2019-02-05T19:56:43.702Z,76.80
2019-02-05T19:59:13.661Z,76.90
2019-02-05T20:01:43.256Z,77.10
2019-02-05T20:04:12.905Z,77.30
2019-02-05T20:06:42.830Z,77.30
2019-02-05T20:09:12.824Z,77.40
2019-02-05T20:11:42.471Z,77.50
2019-02-05T20:14:12.111Z,77.60
2019-02-05T20:16:41.707Z,77.70
2019-02-05T20:19:11.292Z,77.60
2019-02-05T20:21:41.338Z,77.70
2019-02-05T20:24:10.941Z,77.80
2019-02-05T20:26:40.639Z,77.70
2019-02-05T20:29:10.339Z,77.70
2019-02-05T20:31:39.985Z,77.70
2019-02-05T20:34:09.701Z,77.60
2019-02-05T20:36:39.377Z,77.60
2019-02-05T20:39:11.713Z,77.60
2019-02-05T20:41:41.544Z,77.50
2019-02-05T20:44:11.368Z,77.50
2019-02-05T20:46:41.008Z,77.30
2019-02-05T20:49:10.878Z,77.30
2019-02-05T20:51:40.677Z,77.20
2019-02-05T20:54:11.081Z,77.20
2019-02-05T20:56:40.721Z,77.10
2019-02-05T20:59:10.361Z,77.10
2019-02-05T21:01:39.994Z,77.00
2019-02-05T21:04:09.637Z,77.00
2019-02-05T21:06:39.299Z,77.00
2019-02-05T21:09:14.692Z,77.00
2019-02-05T21:11:44.422Z,77.00
2019-02-05T21:14:14.046Z,76.90
2019-02-05T21:16:43.809Z,76.90
2019-02-05T21:19:13.516Z,77.00
2019-02-05T21:21:43.150Z,77.10
2019-02-05T21:24:12.918Z,77.10
2019-02-05T21:26:42.524Z,77.00
2019-02-05T21:29:12.161Z,77.00
2019-02-05T21:31:42.064Z,77.10
2019-02-05T21:34:15.964Z,77.10
2019-02-05T21:36:43.141Z,77.10
2019-02-05T21:39:13.047Z,77.00
2019-02-05T21:41:42.642Z,77.00
2019-02-05T21:44:12.358Z,77.00
2019-02-05T21:46:41.999Z,77.00
2019-02-05T21:49:12.307Z,76.90
2019-02-05T21:51:43.504Z,76.90
2019-02-05T21:54:13.473Z,76.90
2019-02-05T21:56:43.073Z,77.00
2019-02-05T21:59:12.786Z,77.10
2019-02-05T22:01:42.555Z,77.10
2019-02-05T22:04:12.265Z,77.10
2019-02-05T22:06:42.039Z,77.00
2019-02-05T22:09:12.456Z,77.10
2019-02-05T22:11:42.124Z,77.20
2019-02-05T22:14:11.719Z,77.30
2019-02-05T22:16:41.318Z,77.30
2019-02-05T22:19:11.385Z,77.30
2019-02-05T22:21:41.937Z,77.40
2019-02-05T22:24:11.636Z,77.40
2019-02-05T22:26:41.365Z,77.40
2019-02-05T22:29:11.228Z,77.50
2019-02-05T22:31:40.829Z,77.50
2019-02-05T22:34:10.818Z,77.70
2019-02-05T22:36:40.545Z,77.70
2019-02-05T22:39:10.242Z,77.70
2019-02-05T22:41:40.114Z,77.80
2019-02-05T22:44:09.896Z,77.80
2019-02-05T22:46:40.861Z,77.90
2019-02-05T22:49:10.505Z,77.90
2019-02-05T22:51:40.137Z,77.80
2019-02-05T22:54:09.824Z,77.80
2019-02-05T22:56:39.440Z,77.80
2019-02-05T22:59:09.394Z,77.80
2019-02-05T23:01:41.618Z,77.80
2019-02-05T23:04:12.616Z,77.70
2019-02-05T23:06:51.509Z,77.60
2019-02-05T23:09:24.362Z,77.60
2019-02-05T23:12:17.941Z,77.60
2019-02-05T23:14:55.033Z,77.50
2019-02-05T23:17:24.697Z,77.50
2019-02-05T23:19:55.033Z,77.50
2019-02-05T23:22:24.748Z,77.50
2019-02-05T23:24:54.345Z,77.50
2019-02-05T23:27:24.326Z,77.40
2019-02-05T23:29:54.117Z,77.40
2019-02-05T23:32:23.976Z,77.40
2019-02-05T23:35:02.002Z,77.40
2019-02-05T23:37:25.055Z,77.20
2019-02-05T23:39:54.693Z,77.20
2019-02-05T23:42:24.609Z,77.20
2019-02-05T23:44:54.238Z,77.10
2019-02-05T23:47:23.875Z,77.00
2019-02-05T23:49:53.593Z,77.10
2019-02-05T23:52:23.350Z,77.00
2019-02-05T23:54:53.698Z,76.90
2019-02-05T23:57:23.454Z,76.90
2019-02-05T23:59:53.173Z,76.90
